createdAt,value
2018-04-24T00:00:58.778Z,7.27
2018-04-24T00:03:01.928Z,7.10
2018-04-24T00:05:06.982Z,7.10
2018-04-24T00:07:10.918Z,6.73
2018-04-24T00:09:14.064Z,7.62
2018-04-24T00:11:17.240Z,7.93
2018-04-24T00:13:20.377Z,7.77
2018-04-24T00:15:23.546Z,7.63
2018-04-24T00:17:26.879Z,7.95
2018-04-24T00:19:30.063Z,8.27
2018-04-24T00:21:33.984Z,8.75
2018-04-24T00:23:37.896Z,7.07
2018-04-24T00:25:41.839Z,7.85
2018-04-24T00:27:45.743Z,8.17
2018-04-24T00:29:48.914Z,8.47
2018-04-24T00:31:52.059Z,7.20
2018-04-24T00:33:56.003Z,10.77
2018-04-24T00:35:59.951Z,9.20
2018-04-24T00:38:03.089Z,8.25
2018-04-24T00:40:07.385Z,8.20
2018-04-24T00:42:10.555Z,7.53
2018-04-24T00:44:14.462Z,9.23
2018-04-24T00:46:17.622Z,7.87
2018-04-24T00:48:21.138Z,8.40
2018-04-24T00:50:24.283Z,6.93
2018-04-24T00:52:27.879Z,10.82
2018-04-24T00:54:31.042Z,7.67
2018-04-24T00:56:35.001Z,7.07
2018-04-24T00:58:38.152Z,7.53
2018-04-24T01:00:42.038Z,7.47
2018-04-24T01:02:45.639Z,7.77
2018-04-24T01:04:49.482Z,7.60
2018-04-24T01:06:53.323Z,8.80
2018-04-24T01:08:56.855Z,6.90
2018-04-24T01:11:00.370Z,9.00
2018-04-24T01:13:04.207Z,7.65
2018-04-24T01:15:08.864Z,9.10
2018-04-24T01:17:14.039Z,7.93
2018-04-24T01:19:17.602Z,7.90
2018-04-24T01:21:21.509Z,6.80
2018-04-24T01:23:25.082Z,7.37
2018-04-24T01:25:29.746Z,7.60
2018-04-24T01:27:33.360Z,7.77
2018-04-24T01:29:37.279Z,6.60
2018-04-24T01:31:41.562Z,7.00
2018-04-24T01:33:45.482Z,7.00
2018-04-24T01:35:50.447Z,5.95
2018-04-24T01:37:54.323Z,7.90
2018-04-24T01:40:21.083Z,6.43
2018-04-24T01:42:47.694Z,6.07
2018-04-24T01:45:15.404Z,5.60
2018-04-24T01:47:18.569Z,5.80
2018-04-24T01:49:22.486Z,6.10
2018-04-24T01:51:25.651Z,6.60
2018-04-24T01:53:29.912Z,6.83
2018-04-24T01:55:33.146Z,5.27
2018-04-24T01:57:37.074Z,4.17
2018-04-24T01:59:41.011Z,6.77
2018-04-24T02:01:44.153Z,4.87
2018-04-24T02:03:47.328Z,8.07
2018-04-24T02:05:50.496Z,4.03
2018-04-24T02:07:54.981Z,5.23
2018-04-24T02:09:59.785Z,4.70
2018-04-24T02:12:04.508Z,4.93
2018-04-24T02:14:09.665Z,4.33
2018-04-24T02:16:14.784Z,5.03
2018-04-24T02:18:21.387Z,4.07
2018-04-24T02:27:07.679Z,5.47
2018-04-24T02:29:11.100Z,4.55
2018-04-24T02:31:14.252Z,3.83
2018-04-24T02:33:18.190Z,3.70
2018-04-24T02:35:22.108Z,5.12
2018-04-24T02:37:26.028Z,4.03
2018-04-24T02:39:29.969Z,6.90
2018-04-24T02:41:33.910Z,3.50
2018-04-24T02:43:37.083Z,3.60
2018-04-24T02:45:40.292Z,5.57
2018-04-24T02:47:44.235Z,3.72
2018-04-24T02:49:48.139Z,5.28
2018-04-24T02:51:52.471Z,6.07
2018-04-24T02:53:55.716Z,5.10
2018-04-24T02:56:00.035Z,3.78
2018-04-24T02:58:03.292Z,3.53
2018-04-24T03:00:06.447Z,4.20
2018-04-24T03:02:10.377Z,4.27
2018-04-24T03:04:14.322Z,4.67
2018-04-24T03:06:17.473Z,2.43
2018-04-24T03:08:20.654Z,3.93
2018-04-24T03:10:23.831Z,4.73
2018-04-24T03:12:27.006Z,4.90
2018-04-24T03:14:30.162Z,4.65
2018-04-24T03:16:33.346Z,7.27
2018-04-24T03:18:37.259Z,5.10
2018-04-24T03:20:41.547Z,2.62
2018-04-24T03:22:45.238Z,4.25
2018-04-24T03:24:49.098Z,3.00
2018-04-24T03:26:53.556Z,3.78
2018-04-24T03:28:57.527Z,3.77
2018-04-24T03:31:01.078Z,3.63
2018-04-24T03:33:04.232Z,3.60
2018-04-24T03:35:08.173Z,3.07
2018-04-24T03:37:11.895Z,2.23
2018-04-24T03:39:15.452Z,3.37
2018-04-24T03:41:19.091Z,3.87
2018-04-24T03:43:22.799Z,4.33
2018-04-24T03:45:26.511Z,7.17
2018-04-24T03:47:30.029Z,4.20
2018-04-24T03:49:34.120Z,2.90
2018-04-24T03:51:38.351Z,2.40
2018-04-24T03:53:41.804Z,3.97
2018-04-24T03:55:45.321Z,3.72
2018-04-24T03:57:49.015Z,4.30
2018-04-24T03:59:52.583Z,4.90
2018-04-24T04:01:56.278Z,3.27
2018-04-24T04:03:59.961Z,3.13
2018-04-24T04:06:03.519Z,4.00
2018-04-24T04:08:07.033Z,5.00
2018-04-24T04:10:10.712Z,4.18
2018-04-24T04:12:14.279Z,4.35
2018-04-24T04:14:17.423Z,5.37
2018-04-24T04:16:21.389Z,4.80
2018-04-24T04:18:43.390Z,3.87
2018-04-24T04:21:05.980Z,3.03
2018-04-24T04:23:29.012Z,4.32
2018-04-24T04:25:32.193Z,4.30
2018-04-24T04:27:35.353Z,7.47
2018-04-24T04:29:38.540Z,5.80
2018-04-24T04:31:41.716Z,6.90
2018-04-24T04:33:45.088Z,4.67
2018-04-24T04:35:48.331Z,4.73
2018-04-24T04:37:51.788Z,10.20
2018-04-24T04:39:55.008Z,5.40
2018-04-24T04:41:58.188Z,3.33
2018-04-24T04:44:02.107Z,4.95
2018-04-24T04:46:06.051Z,6.93
2018-04-24T04:48:09.199Z,4.30
2018-04-24T04:50:12.431Z,7.62
2018-04-24T04:52:16.280Z,6.33
2018-04-24T04:54:20.196Z,7.37
2018-04-24T04:56:25.311Z,4.93
2018-04-24T04:58:28.779Z,7.55
2018-04-24T05:00:32.006Z,5.43
2018-04-24T05:02:35.562Z,5.82
2018-04-24T05:04:39.477Z,4.70
2018-04-24T05:06:42.655Z,4.97
2018-04-24T05:08:45.804Z,4.50
2018-04-24T05:10:48.988Z,6.65
2018-04-24T05:12:52.135Z,6.62
2018-04-24T05:14:55.981Z,4.18
2018-04-24T05:16:59.147Z,5.30
2018-04-24T05:19:03.484Z,4.57
2018-04-24T05:21:06.638Z,5.77
2018-04-24T05:23:09.782Z,7.30
2018-04-24T05:25:13.067Z,7.00
2018-04-24T05:27:16.211Z,5.80
2018-04-24T05:29:19.366Z,5.83
2018-04-24T05:31:22.552Z,4.10
2018-04-24T05:33:25.782Z,4.03
2018-04-24T05:35:29.715Z,4.77
2018-04-24T05:37:32.863Z,5.25
2018-04-24T05:39:36.448Z,6.15
2018-04-24T05:41:39.636Z,3.17
2018-04-24T05:43:43.557Z,4.53
2018-04-24T05:45:47.494Z,3.78
2018-04-24T05:47:50.638Z,5.00
2018-04-24T05:49:53.789Z,6.17
2018-04-24T05:51:57.754Z,7.60
2018-04-24T05:54:00.911Z,4.93
2018-04-24T05:56:04.091Z,4.90
2018-04-24T05:58:07.287Z,3.60
2018-04-24T06:00:10.440Z,6.87
2018-04-24T06:02:13.589Z,4.20
2018-04-24T06:04:17.213Z,3.37
2018-04-24T06:06:20.402Z,3.80
2018-04-24T06:08:23.567Z,5.80
2018-04-24T06:10:27.483Z,4.47
2018-04-24T06:12:30.675Z,5.03
2018-04-24T06:14:33.855Z,5.07
2018-04-24T06:16:37.286Z,4.80
2018-04-24T06:18:40.642Z,5.47
2018-04-24T06:20:44.647Z,3.33
2018-04-24T06:22:47.796Z,5.47
2018-04-24T06:24:51.721Z,4.17
2018-04-24T06:26:55.672Z,4.12
2018-04-24T06:28:58.849Z,4.27
2018-04-24T06:31:02.223Z,3.10
2018-04-24T06:33:05.692Z,8.03
2018-04-24T06:35:08.947Z,5.47
2018-04-24T06:37:12.459Z,4.07
2018-04-24T06:39:15.618Z,2.50
2018-04-24T06:41:19.575Z,3.40
2018-04-24T06:43:22.734Z,5.10
2018-04-24T06:45:25.965Z,3.55
2018-04-24T06:47:29.910Z,5.30
2018-04-24T06:49:33.064Z,5.00
2018-04-24T06:51:36.219Z,4.40
2018-04-24T06:53:39.413Z,5.20
2018-04-24T06:55:43.367Z,2.90
2018-04-24T06:57:46.518Z,4.43
2018-04-24T06:59:49.671Z,2.35
2018-04-24T07:01:52.852Z,3.43
2018-04-24T07:03:56.774Z,3.77
2018-04-24T07:06:00.704Z,4.10
2018-04-24T07:08:04.651Z,5.37
2018-04-24T07:10:07.804Z,3.97
2018-04-24T07:12:10.996Z,4.53
2018-04-24T07:14:14.144Z,3.70
2018-04-24T07:16:17.323Z,3.22
2018-04-24T07:18:20.507Z,3.10
2018-04-24T07:20:23.656Z,4.63
2018-04-24T07:22:26.831Z,6.97
2018-04-24T07:24:29.987Z,4.40
2018-04-24T07:26:33.213Z,2.23
2018-04-24T07:28:37.163Z,3.65
2018-04-24T07:30:44.193Z,5.03
2018-04-24T07:32:47.470Z,4.40
2018-04-24T07:34:53.445Z,4.03
2018-04-24T07:36:58.365Z,2.35
2018-04-24T07:39:02.600Z,3.47
2018-04-24T07:41:07.352Z,3.40
2018-04-24T07:43:10.756Z,4.32
2018-04-24T07:45:14.716Z,5.30
2018-04-24T07:47:17.875Z,2.40
2018-04-24T07:49:22.176Z,3.35
2018-04-24T07:51:25.458Z,4.10
2018-04-24T07:53:28.647Z,3.25
2018-04-24T07:55:32.554Z,3.10
2018-04-24T07:57:35.988Z,2.33
2018-04-24T07:59:40.024Z,2.17
2018-04-24T08:01:43.207Z,3.17
2018-04-24T08:03:46.443Z,3.30
2018-04-24T08:05:49.610Z,3.33
2018-04-24T08:07:52.797Z,4.60
2018-04-24T08:09:56.004Z,2.05
2018-04-24T08:11:59.223Z,4.00
2018-04-24T08:14:02.399Z,3.40
2018-04-24T08:16:07.140Z,2.53
2018-04-24T08:18:12.414Z,3.77
2018-04-24T08:20:18.334Z,4.00
2018-04-24T08:22:23.493Z,1.70
2018-04-24T08:24:26.813Z,4.03
2018-04-24T08:26:29.992Z,4.90
2018-04-24T08:28:33.196Z,3.77
2018-04-24T08:30:36.368Z,3.40
2018-04-24T08:32:39.567Z,6.33
2018-04-24T08:34:42.751Z,4.70
2018-04-24T08:36:46.699Z,3.07
2018-04-24T08:38:49.882Z,7.17
2018-04-24T08:40:53.819Z,4.95
2018-04-24T08:42:57.000Z,2.87
2018-04-24T08:45:00.944Z,2.90
2018-04-24T08:47:06.020Z,6.05
2018-04-24T08:49:09.757Z,2.67
2018-04-24T08:51:12.937Z,2.97
2018-04-24T08:53:16.111Z,2.90
2018-04-24T08:55:19.315Z,2.77
2018-04-24T08:57:23.255Z,5.90
2018-04-24T08:59:27.297Z,4.00
2018-04-24T09:01:31.231Z,3.28
2018-04-24T09:03:34.412Z,5.30
2018-04-24T09:05:38.360Z,3.27
2018-04-24T09:07:41.549Z,2.00
2018-04-24T09:09:46.619Z,3.50
2018-04-24T09:11:49.799Z,4.50
2018-04-24T09:13:53.017Z,3.07
2018-04-24T09:15:56.186Z,3.00
2018-04-24T09:17:59.766Z,3.87
2018-04-24T09:20:02.958Z,5.62
2018-04-24T09:22:07.899Z,4.50
2018-04-24T09:24:11.077Z,3.33
2018-04-24T09:26:14.266Z,4.47
2018-04-24T09:28:17.435Z,5.07
2018-04-24T09:30:21.385Z,4.60
2018-04-24T09:32:24.554Z,5.40
2018-04-24T09:34:27.744Z,4.10
2018-04-24T09:36:30.923Z,3.57
2018-04-24T09:38:34.096Z,3.83
2018-04-24T09:40:38.043Z,5.40
2018-04-24T09:42:41.214Z,4.82
2018-04-24T09:44:44.392Z,5.57
2018-04-24T09:46:47.797Z,3.87
2018-04-24T09:48:50.973Z,6.23
2018-04-24T09:50:54.172Z,4.87
2018-04-24T09:52:58.919Z,6.03
2018-04-24T09:55:02.100Z,5.50
2018-04-24T09:57:05.294Z,6.75
2018-04-24T09:59:08.470Z,5.90
2018-04-24T10:01:11.655Z,5.67
2018-04-24T10:03:14.850Z,5.83
2018-04-24T10:05:18.823Z,4.90
2018-04-24T10:07:22.040Z,3.10
2018-04-24T10:09:25.239Z,5.28
2018-04-24T10:11:28.658Z,4.12
2018-04-24T10:13:31.874Z,5.43
2018-04-24T10:15:35.966Z,6.00
2018-04-24T10:17:39.147Z,5.10
2018-04-24T10:19:43.104Z,5.10
2018-04-24T10:21:46.307Z,3.53
2018-04-24T10:23:49.493Z,4.10
2018-04-24T10:25:53.439Z,7.73
2018-04-24T10:27:56.620Z,4.85
2018-04-24T10:30:00.569Z,4.97
2018-04-24T10:32:03.907Z,5.17
2018-04-24T10:34:07.090Z,6.32
2018-04-24T10:36:10.280Z,4.07
2018-04-24T10:38:14.217Z,4.63
2018-04-24T10:40:18.183Z,6.87
2018-04-24T10:42:21.363Z,5.30
2018-04-24T10:44:24.539Z,7.63
2018-04-24T10:46:30.339Z,7.90
2018-04-24T10:48:33.530Z,5.20
2018-04-24T10:50:39.619Z,5.35
2018-04-24T10:52:42.825Z,7.55
2018-04-24T10:54:45.999Z,5.33
2018-04-24T10:56:51.504Z,4.77
2018-04-24T10:58:54.685Z,8.43
2018-04-24T11:00:58.651Z,4.10
2018-04-24T11:03:01.831Z,4.20
2018-04-24T11:05:05.016Z,4.55
2018-04-24T11:07:08.985Z,4.03
2018-04-24T11:09:12.187Z,5.13
2018-04-24T11:11:15.367Z,4.95
2018-04-24T11:13:19.611Z,4.25
2018-04-24T11:15:23.859Z,6.32
2018-04-24T11:17:27.049Z,4.33
2018-04-24T11:19:31.707Z,6.20
2018-04-24T11:21:34.890Z,6.13
2018-04-24T11:23:38.067Z,6.43
2018-04-24T11:25:41.266Z,4.77
2018-04-24T11:27:44.444Z,6.20
2018-04-24T11:29:47.627Z,7.18
2018-04-24T11:31:51.692Z,6.68
2018-04-24T11:33:54.897Z,5.57
2018-04-24T11:35:58.100Z,5.87
2018-04-24T11:38:01.329Z,6.45
2018-04-24T11:40:04.503Z,6.65
2018-04-24T11:42:08.455Z,8.57
2018-04-24T11:44:11.643Z,5.23
2018-04-24T11:46:17.568Z,6.30
2018-04-24T11:48:21.704Z,6.53
2018-04-24T11:50:25.362Z,7.03
2018-04-24T11:52:29.313Z,4.78
2018-04-24T11:54:32.558Z,5.23
2018-04-24T11:56:35.760Z,6.77
2018-04-24T11:58:38.991Z,4.20
2018-04-24T12:00:42.425Z,4.50
2018-04-24T12:02:45.628Z,3.25
2018-04-24T12:04:49.578Z,5.27
2018-04-24T12:06:52.754Z,5.30
2018-04-24T12:08:56.080Z,5.03
2018-04-24T12:11:00.044Z,4.33
2018-04-24T12:13:03.283Z,7.53
2018-04-24T12:15:07.980Z,4.47
2018-04-24T12:17:12.271Z,4.20
2018-04-24T12:19:15.692Z,3.97
2018-04-24T12:21:19.687Z,8.33
2018-04-24T12:23:22.983Z,3.58
2018-04-24T12:25:26.164Z,4.32
2018-04-24T12:27:29.347Z,6.25
2018-04-24T12:29:33.489Z,4.17
2018-04-24T12:31:37.451Z,3.33
2018-04-24T12:33:40.643Z,3.93
2018-04-24T12:35:43.828Z,3.92
2018-04-24T12:37:47.782Z,3.67
2018-04-24T12:39:50.958Z,3.17
2018-04-24T12:41:54.944Z,3.35
2018-04-24T12:43:58.123Z,5.57
2018-04-24T12:46:01.308Z,5.70
2018-04-24T12:48:04.498Z,4.57
2018-04-24T12:50:07.679Z,3.90
2018-04-24T12:52:10.879Z,3.07
2018-04-24T12:54:14.060Z,3.50
2018-04-24T12:56:17.258Z,2.70
2018-04-24T12:58:21.207Z,3.40
2018-04-24T13:00:24.378Z,3.50
2018-04-24T13:02:29.148Z,6.23
2018-04-24T13:04:33.332Z,3.33
2018-04-24T13:06:36.483Z,4.43
2018-04-24T13:08:39.659Z,6.30
2018-04-24T13:10:42.839Z,5.00
2018-04-24T13:12:46.328Z,4.75
2018-04-24T13:14:49.504Z,3.95
2018-04-24T13:16:54.571Z,3.80
2018-04-24T13:18:58.519Z,5.53
2018-04-24T13:21:01.704Z,5.10
2018-04-24T13:23:05.655Z,5.00
2018-04-24T13:25:08.901Z,6.93
2018-04-24T13:27:12.259Z,6.55
2018-04-24T13:29:15.440Z,4.90
2018-04-24T13:31:18.784Z,5.53
2018-04-24T13:33:22.731Z,5.82
2018-04-24T13:35:25.936Z,5.40
2018-04-24T13:37:29.134Z,4.90
2018-04-24T13:39:32.728Z,5.82
2018-04-24T13:41:36.904Z,5.07
2018-04-24T13:43:40.077Z,4.83
2018-04-24T13:45:43.263Z,5.73
2018-04-24T13:47:46.435Z,5.30
2018-04-24T13:49:49.622Z,4.90
2018-04-24T13:51:53.046Z,5.40
2018-04-24T13:53:56.239Z,5.93
2018-04-24T13:56:00.415Z,6.22
2018-04-24T13:58:03.591Z,6.85
2018-04-24T14:00:06.777Z,5.33
2018-04-24T14:02:09.973Z,5.57
2018-04-24T14:04:13.927Z,6.20
2018-04-24T14:06:17.211Z,6.90
2018-04-24T14:08:20.724Z,7.40
2018-04-24T14:10:24.921Z,6.77
2018-04-24T14:12:28.178Z,8.63
2018-04-24T14:14:31.432Z,11.63
2018-04-24T14:16:34.615Z,12.03
2018-04-24T14:18:37.798Z,14.10
2018-04-24T14:20:41.748Z,13.47
2018-04-24T14:22:44.931Z,14.95
2018-04-24T14:24:48.879Z,13.40
2018-04-24T14:26:52.223Z,14.13
2018-04-24T14:28:56.540Z,14.87
2018-04-24T14:30:59.725Z,13.47
2018-04-24T14:33:02.986Z,13.13
2018-04-24T14:35:06.171Z,15.37
2018-04-24T14:37:09.695Z,13.80
2018-04-24T14:39:12.823Z,11.87
2018-04-24T14:41:17.527Z,13.95
2018-04-24T14:43:20.716Z,12.27
2018-04-24T14:45:23.925Z,11.82
2018-04-24T14:47:27.120Z,12.90
2018-04-24T14:49:31.065Z,10.93
2018-04-24T14:51:34.339Z,12.70
2018-04-24T14:53:37.480Z,11.23
2018-04-24T14:55:40.773Z,13.03
2018-04-24T14:57:44.723Z,13.23
2018-04-24T14:59:47.907Z,14.93
2018-04-24T15:01:51.867Z,12.30
2018-04-24T15:03:55.045Z,12.50
2018-04-24T15:05:59.090Z,11.12
2018-04-24T15:08:03.063Z,10.80
2018-04-24T15:10:06.249Z,11.95
2018-04-24T15:12:09.449Z,11.57
2018-04-24T15:14:12.640Z,16.13
2018-04-24T15:16:15.822Z,10.03
2018-04-24T15:18:20.899Z,11.50
2018-04-24T15:20:24.138Z,11.17
2018-04-24T15:22:27.325Z,13.25
2018-04-24T15:24:30.730Z,12.80
2018-04-24T15:26:33.922Z,12.37
2018-04-24T15:28:37.979Z,14.70
2018-04-24T15:30:41.432Z,13.25
2018-04-24T15:32:44.617Z,11.63
2018-04-24T15:34:47.828Z,14.20
2018-04-24T15:36:51.043Z,12.20
2018-04-24T15:38:54.240Z,13.32
2018-04-24T15:40:57.453Z,13.40
2018-04-24T15:43:01.758Z,12.50
2018-04-24T15:45:04.936Z,13.93
2018-04-24T15:47:08.205Z,12.07
2018-04-24T15:49:11.390Z,13.30
2018-04-24T15:51:14.566Z,11.07
2018-04-24T15:53:17.757Z,11.23
2018-04-24T15:55:22.074Z,10.63
2018-04-24T15:57:25.283Z,10.67
2018-04-24T15:59:28.764Z,11.88
2018-04-24T16:01:31.946Z,9.97
2018-04-24T16:03:35.891Z,10.00
2018-04-24T16:05:39.066Z,8.73
2018-04-24T16:07:42.465Z,9.47
2018-04-24T16:09:45.672Z,9.83
2018-04-24T16:11:48.859Z,7.80
2018-04-24T16:13:52.038Z,7.57
2018-04-24T16:15:55.250Z,7.67
2018-04-24T16:17:58.427Z,8.40
2018-04-24T16:20:01.648Z,7.33
2018-04-24T16:22:05.591Z,7.63
2018-04-24T16:24:08.839Z,8.90
2018-04-24T16:26:11.971Z,7.10
2018-04-24T16:28:15.183Z,6.60
2018-04-24T16:30:18.358Z,7.70
2018-04-24T16:32:21.540Z,6.43
2018-04-24T16:34:24.992Z,6.72
2018-04-24T16:36:28.168Z,6.47
2018-04-24T16:38:31.356Z,6.73
2018-04-24T16:40:35.592Z,6.05
2018-04-24T16:42:38.788Z,6.53
2018-04-24T16:44:42.732Z,7.12
2018-04-24T16:46:45.928Z,5.50
2018-04-24T16:48:49.867Z,6.13
2018-04-24T16:50:53.050Z,6.62
2018-04-24T16:52:56.223Z,6.57
2018-04-24T16:54:59.402Z,5.95
2018-04-24T16:57:02.579Z,7.40
2018-04-24T16:59:06.551Z,5.00
2018-04-24T17:01:09.745Z,6.33
2018-04-24T17:03:12.926Z,5.78
2018-04-24T17:05:16.128Z,5.23
2018-04-24T17:07:20.388Z,4.50
2018-04-24T17:09:23.567Z,5.13
2018-04-24T17:11:27.554Z,5.00
2018-04-24T17:13:30.710Z,7.17
2018-04-24T17:15:34.661Z,4.37
2018-04-24T17:17:37.852Z,5.50
2018-04-24T17:19:41.798Z,3.65
2018-04-24T17:21:44.976Z,4.12
2018-04-24T17:23:48.923Z,5.13
2018-04-24T17:25:52.091Z,4.00
2018-04-24T17:27:55.270Z,5.17
2018-04-24T17:29:58.451Z,4.63
2018-04-24T17:32:01.851Z,3.90
2018-04-24T17:34:06.096Z,7.53
2018-04-24T17:36:09.279Z,4.80
2018-04-24T17:38:13.226Z,6.87
2018-04-24T17:40:16.402Z,3.50
2018-04-24T17:42:19.591Z,6.78
2018-04-24T17:44:22.779Z,3.83
2018-04-24T17:46:25.951Z,8.53
2018-04-24T17:48:29.907Z,4.70
2018-04-24T17:50:33.084Z,3.33
2018-04-24T17:52:37.025Z,4.83
2018-04-24T17:54:40.213Z,3.78
2018-04-24T17:56:44.159Z,3.43
2018-04-24T17:58:47.332Z,3.12
2018-04-24T18:00:50.520Z,6.57
2018-04-24T18:02:53.699Z,3.77
2018-04-24T18:04:56.887Z,3.37
2018-04-24T18:07:00.818Z,2.83
2018-04-24T18:09:03.994Z,3.37
2018-04-24T18:11:07.188Z,4.30
2018-04-24T18:13:10.360Z,4.13
2018-04-24T18:15:13.526Z,4.40
2018-04-24T18:17:17.730Z,5.97
2018-04-24T18:19:21.847Z,3.80
2018-04-24T18:21:25.032Z,5.50
2018-04-24T18:23:28.639Z,5.33
2018-04-24T18:25:31.816Z,2.93
2018-04-24T18:27:36.961Z,6.27
2018-04-24T18:29:40.147Z,3.80
2018-04-24T18:31:43.328Z,4.82
2018-04-24T18:33:46.520Z,2.67
2018-04-24T18:35:50.488Z,3.45
2018-04-24T18:37:53.700Z,4.22
2018-04-24T18:39:57.663Z,6.17
2018-04-24T18:42:00.836Z,2.87
2018-04-24T18:44:04.516Z,7.65
2018-04-24T18:46:07.702Z,4.03
2018-04-24T18:48:11.651Z,5.67
2018-04-24T18:50:14.822Z,3.22
2018-04-24T18:52:19.769Z,4.78
2018-04-24T18:54:22.961Z,6.90
2018-04-24T18:56:26.136Z,6.37
2018-04-24T18:58:29.314Z,4.35
2018-04-24T19:00:33.273Z,4.62
2018-04-24T19:02:36.460Z,5.13
2018-04-24T19:04:39.635Z,4.20
2018-04-24T19:06:42.811Z,4.47
2018-04-24T19:08:45.978Z,3.50
2018-04-24T19:10:49.939Z,2.87
2018-04-24T19:12:53.116Z,5.43
2018-04-24T19:14:57.063Z,5.17
2018-04-24T19:17:00.242Z,2.87
2018-04-24T19:19:09.716Z,3.87
2018-04-24T19:21:12.954Z,4.50
2018-04-24T19:23:16.139Z,2.77
2018-04-24T19:25:24.904Z,3.92
2018-04-24T19:27:28.089Z,4.72
2018-04-24T19:29:31.679Z,4.57
2018-04-24T19:31:41.280Z,3.07
2018-04-24T19:33:44.472Z,4.70
2018-04-24T19:35:51.330Z,3.47
2018-04-24T19:37:55.262Z,3.78
2018-04-24T19:40:04.886Z,3.85
2018-04-24T19:42:08.922Z,2.97
2018-04-24T19:44:13.643Z,5.80
2018-04-24T19:46:17.038Z,5.77
2018-04-24T19:48:25.888Z,4.93
2018-04-24T19:50:30.476Z,5.17
2018-04-24T19:52:36.238Z,4.40
2018-04-24T19:54:48.201Z,5.70
2018-04-24T19:56:56.878Z,4.77
2018-04-24T19:59:01.687Z,4.97
2018-04-24T20:01:06.781Z,3.60
2018-04-24T20:03:11.018Z,3.40
2018-04-24T20:05:14.326Z,4.97
2018-04-24T20:07:18.552Z,7.10
2018-04-24T20:09:22.498Z,3.20
2018-04-24T20:11:25.680Z,3.63
2018-04-24T20:13:28.854Z,3.87
2018-04-24T20:15:32.048Z,2.67
2018-04-24T20:17:35.231Z,4.53
2018-04-24T20:19:38.403Z,5.10
2018-04-24T20:21:41.584Z,3.20
2018-04-24T20:23:44.811Z,4.60
2018-04-24T20:25:48.163Z,4.97
2018-04-24T20:27:51.361Z,3.97
2018-04-24T20:29:55.340Z,3.67
2018-04-24T20:31:58.528Z,4.05
2018-04-24T20:34:01.723Z,3.50
2018-04-24T20:36:04.907Z,3.40
2018-04-24T20:38:08.847Z,5.07
2018-04-24T20:40:12.787Z,4.77
2018-04-24T20:42:15.964Z,3.57
2018-04-24T20:44:19.902Z,4.03
2018-04-24T20:46:23.844Z,5.60
2018-04-24T20:48:28.483Z,4.43
2018-04-24T20:50:31.699Z,4.03
2018-04-24T20:52:34.919Z,3.70
2018-04-24T20:54:39.872Z,5.70
2018-04-24T20:56:45.167Z,4.30
2018-04-24T20:58:48.466Z,4.68
2018-04-24T21:00:52.178Z,5.03
2018-04-24T21:02:55.331Z,5.18
2018-04-24T21:04:59.613Z,5.65
2018-04-24T21:07:03.308Z,3.90
2018-04-24T21:09:07.108Z,4.43
2018-04-24T21:11:11.399Z,3.40
2018-04-24T21:13:14.810Z,3.62
2018-04-24T21:15:18.702Z,4.40
2018-04-24T21:17:21.879Z,3.83
2018-04-24T21:19:25.896Z,6.07
2018-04-24T21:21:29.335Z,2.73
2018-04-24T21:23:33.280Z,5.40
2018-04-24T21:25:36.468Z,7.25
2018-04-24T21:27:40.677Z,5.62
2018-04-24T21:29:45.651Z,5.57
2018-04-24T21:31:51.048Z,5.57
2018-04-24T21:33:54.228Z,3.93
2018-04-24T21:35:57.416Z,4.78
2018-04-24T21:38:00.592Z,4.70
2018-04-24T21:40:03.768Z,5.97
2018-04-24T21:42:06.923Z,5.93
2018-04-24T21:44:12.611Z,5.73
2018-04-24T21:46:16.600Z,3.87
2018-04-24T21:48:19.751Z,5.07
2018-04-24T21:50:23.695Z,4.72
2018-04-24T21:52:26.879Z,4.80
2018-04-24T21:54:30.787Z,4.43
2018-04-24T21:56:34.742Z,4.90
2018-04-24T21:58:37.893Z,7.50
2018-04-24T22:00:41.586Z,2.83
2018-04-24T22:02:44.765Z,5.40
2018-04-24T22:04:48.989Z,4.32
2018-04-24T22:06:52.902Z,6.40
2018-04-24T22:08:56.814Z,3.47
2018-04-24T22:10:59.987Z,5.43
2018-04-24T22:13:03.135Z,4.37
2018-04-24T22:15:06.299Z,4.17
2018-04-24T22:17:11.372Z,4.67
2018-04-24T22:19:14.525Z,4.37
2018-04-24T22:21:18.453Z,4.33
2018-04-24T22:23:22.396Z,4.27
2018-04-24T22:25:25.547Z,5.80
2018-04-24T22:27:28.735Z,5.13
2018-04-24T22:29:31.891Z,4.70
2018-04-24T22:31:35.825Z,5.45
2018-04-24T22:33:39.788Z,7.30
2018-04-24T22:35:42.938Z,6.47
2018-04-24T22:37:46.092Z,4.33
2018-04-24T22:39:49.271Z,5.03
2018-04-24T22:41:52.460Z,3.27
2018-04-24T22:43:56.384Z,3.75
2018-04-24T22:45:59.534Z,5.13
2018-04-24T22:48:02.719Z,6.77
2018-04-24T22:50:05.867Z,5.10
2018-04-24T22:52:09.024Z,5.40
2018-04-24T22:54:12.208Z,3.67
2018-04-24T22:56:15.362Z,4.10
2018-04-24T22:58:19.275Z,5.77
2018-04-24T23:00:22.451Z,7.03
2018-04-24T23:02:25.623Z,5.37
2018-04-24T23:04:28.803Z,5.43
2018-04-24T23:06:32.848Z,5.10
2018-04-24T23:08:36.792Z,7.73
2018-04-24T23:10:58.168Z,5.72
2018-04-24T23:13:19.204Z,4.57
2018-04-24T23:15:41.220Z,4.12
2018-04-24T23:18:02.366Z,7.25
2018-04-24T23:20:16.547Z,3.35
2018-04-24T23:22:36.019Z,6.10
2018-04-24T23:24:39.587Z,5.05
2018-04-24T23:26:42.796Z,4.40
2018-04-24T23:28:45.991Z,5.80
2018-04-24T23:30:49.138Z,8.43
2018-04-24T23:32:54.283Z,5.90
2018-04-24T23:34:57.468Z,3.67
2018-04-24T23:37:00.623Z,5.80
2018-04-24T23:39:03.795Z,6.32
2018-04-24T23:41:06.984Z,6.20
2018-04-24T23:43:10.136Z,4.75
2018-04-24T23:45:14.057Z,6.23
2018-04-24T23:47:18.007Z,5.68
2018-04-24T23:49:21.200Z,4.30
2018-04-24T23:51:25.123Z,3.30
2018-04-24T23:53:29.035Z,6.57
2018-04-24T23:55:33.331Z,5.07
2018-04-24T23:57:36.512Z,5.97
2018-04-24T23:59:40.026Z,7.50
